createdAt,value
2019-05-12T00:01:09.296Z,1.30
2019-05-12T00:06:14.248Z,1.30
2019-05-12T00:11:19.574Z,1.50
2019-05-12T00:16:24.302Z,1.27
2019-05-12T00:21:30.131Z,1.55
2019-05-12T00:26:34.858Z,1.50
2019-05-12T00:31:39.641Z,1.52
2019-05-12T00:36:44.644Z,1.50
2019-05-12T00:41:49.611Z,1.60
2019-05-12T00:46:54.539Z,1.80
2019-05-12T00:51:59.428Z,1.98
2019-05-12T00:57:04.708Z,1.62
2019-05-12T01:02:09.498Z,1.60
2019-05-12T01:07:14.905Z,1.55
2019-05-12T01:12:19.737Z,1.60
2019-05-12T01:17:24.644Z,1.80
2019-05-12T01:22:29.487Z,1.60
2019-05-12T01:27:38.192Z,1.70
2019-05-12T01:32:42.503Z,2.05
2019-05-12T01:37:48.412Z,1.60
2019-05-12T01:42:53.262Z,1.92
2019-05-12T01:47:59.008Z,1.82
2019-05-12T01:53:04.882Z,1.80
2019-05-12T01:58:09.751Z,1.70
2019-05-12T02:03:14.541Z,1.67
2019-05-12T02:08:25.267Z,1.72
2019-05-12T02:13:32.663Z,1.70
2019-05-12T02:18:38.715Z,1.72
2019-05-12T02:23:49.271Z,1.87
2019-05-12T02:28:53.981Z,1.95
2019-05-12T02:33:58.873Z,2.05
2019-05-12T02:39:07.021Z,1.80
2019-05-12T02:44:14.921Z,1.90
2019-05-12T02:49:18.362Z,1.67
2019-05-12T02:54:27.000Z,1.95
2019-05-12T02:59:34.448Z,1.92
2019-05-12T03:04:40.203Z,1.90
2019-05-12T03:09:55.002Z,1.70
2019-05-12T03:14:59.238Z,1.95
2019-05-12T03:20:05.435Z,2.10
2019-05-12T03:25:19.985Z,1.77
2019-05-12T03:30:19.341Z,1.53
2019-05-12T03:35:32.839Z,2.00
2019-05-12T03:40:30.465Z,1.72
2019-05-12T03:45:36.503Z,1.60
2019-05-12T03:50:41.550Z,1.50
2019-05-12T03:55:47.350Z,1.40
2019-05-12T04:00:55.185Z,1.53
2019-05-12T04:05:59.092Z,1.40
2019-05-12T04:11:05.533Z,1.60
2019-05-12T04:16:10.962Z,1.25
2019-05-12T04:21:17.465Z,1.27
2019-05-12T04:26:25.090Z,1.32
2019-05-12T04:31:38.717Z,1.72
2019-05-12T04:36:44.882Z,1.70
2019-05-12T04:41:50.222Z,1.47
2019-05-12T04:47:36.895Z,1.57
2019-05-12T04:52:44.704Z,1.57
2019-05-12T04:57:49.790Z,1.40
2019-05-12T05:02:55.087Z,1.30
2019-05-12T05:08:00.010Z,1.40
2019-05-12T05:13:05.702Z,1.30
2019-05-12T05:18:10.768Z,1.52
2019-05-12T05:23:15.497Z,1.30
2019-05-12T05:28:23.516Z,1.50
2019-05-12T05:33:34.153Z,1.45
2019-05-12T05:38:44.992Z,1.30
2019-05-12T05:43:54.235Z,1.30
2019-05-12T05:48:56.213Z,1.27
2019-05-12T05:54:03.792Z,1.12
2019-05-12T05:59:07.913Z,1.13
2019-05-12T06:04:14.059Z,1.50
2019-05-12T06:09:18.968Z,1.25
2019-05-12T06:14:25.573Z,1.80
2019-05-12T06:19:30.459Z,1.10
2019-05-12T06:24:35.311Z,1.22
2019-05-12T06:29:40.143Z,1.40
2019-05-12T06:34:44.960Z,1.57
2019-05-12T06:39:56.492Z,1.80
2019-05-12T06:44:58.366Z,1.47
2019-05-12T06:50:09.311Z,1.60
2019-05-12T06:55:14.783Z,1.40
2019-05-12T07:00:22.328Z,1.50
2019-05-12T07:05:28.155Z,1.50
2019-05-12T07:10:39.520Z,1.82
2019-05-12T07:15:40.554Z,1.67
2019-05-12T07:20:45.506Z,1.75
2019-05-12T07:25:50.233Z,1.57
2019-05-12T07:30:54.980Z,1.80
2019-05-12T07:36:15.708Z,1.55
2019-05-12T07:41:23.730Z,1.45
2019-05-12T07:46:28.751Z,1.20
2019-05-12T07:51:38.273Z,1.20
2019-05-12T07:56:40.901Z,1.60
2019-05-12T08:01:51.959Z,1.27
2019-05-12T08:07:04.727Z,1.30
2019-05-12T08:12:19.120Z,1.22
2019-05-12T08:17:19.458Z,1.30
2019-05-12T08:22:27.191Z,1.42
2019-05-12T08:27:29.848Z,1.07
2019-05-12T08:32:34.618Z,1.27
2019-05-12T08:37:40.608Z,1.10
2019-05-12T08:42:45.624Z,1.02
2019-05-12T08:47:50.350Z,0.93
2019-05-12T08:52:55.207Z,0.98
2019-05-12T08:58:00.111Z,1.00
2019-05-12T09:03:04.872Z,0.90
2019-05-12T09:08:13.806Z,0.93
2019-05-12T09:13:18.891Z,1.10
2019-05-12T09:18:28.689Z,0.90
2019-05-12T09:23:40.958Z,0.93
2019-05-12T09:28:49.904Z,1.00
2019-05-12T09:33:49.907Z,1.15
2019-05-12T09:39:01.544Z,0.95
2019-05-12T09:44:02.441Z,1.00
2019-05-12T09:49:07.849Z,1.00
2019-05-12T09:54:13.909Z,1.07
2019-05-12T09:59:22.888Z,1.00
2019-05-12T10:04:26.561Z,0.93
2019-05-12T10:09:33.417Z,1.00
2019-05-12T10:14:40.694Z,1.17
2019-05-12T10:19:48.514Z,0.90
2019-05-12T10:24:58.736Z,0.95
2019-05-12T10:30:11.942Z,0.88
2019-05-12T10:35:21.034Z,0.93
2019-05-12T10:40:23.322Z,1.50
2019-05-12T10:45:29.923Z,1.07
2019-05-12T10:50:34.779Z,0.98
2019-05-12T10:55:39.456Z,1.15
2019-05-12T11:00:44.534Z,1.00
2019-05-12T11:05:56.683Z,1.10
2019-05-12T11:11:08.085Z,0.90
2019-05-12T11:16:14.742Z,0.90
2019-05-12T11:21:19.346Z,1.02
2019-05-12T11:26:25.098Z,1.12
2019-05-12T11:31:30.015Z,1.22
2019-05-12T11:36:37.673Z,1.07
2019-05-12T11:41:55.434Z,1.00
2019-05-12T11:47:00.219Z,1.20
2019-05-12T11:52:10.806Z,0.90
2019-05-12T11:57:13.303Z,0.90
2019-05-12T12:02:20.188Z,1.12
2019-05-12T12:07:26.005Z,1.20
2019-05-12T12:12:30.744Z,0.65
2019-05-12T12:17:35.720Z,0.90
2019-05-12T12:22:54.108Z,1.05
2019-05-12T12:27:58.066Z,0.90
2019-05-12T12:33:03.974Z,0.80
2019-05-12T12:38:14.070Z,1.20
2019-05-12T12:43:18.475Z,0.98
2019-05-12T12:48:27.772Z,0.80
2019-05-12T12:53:29.671Z,0.80
2019-05-12T12:58:34.723Z,0.82
2019-05-12T13:03:43.418Z,0.78
2019-05-12T13:08:54.207Z,0.90
2019-05-12T13:13:59.005Z,0.60
2019-05-12T13:19:12.382Z,0.80
2019-05-12T13:24:11.181Z,0.65
2019-05-12T13:29:15.939Z,0.88
2019-05-12T13:34:20.731Z,1.20
2019-05-12T13:39:26.447Z,0.98
2019-05-12T13:44:38.732Z,0.80
2019-05-12T13:49:44.181Z,1.10
2019-05-12T13:54:45.320Z,0.80
2019-05-12T13:59:54.258Z,0.80
2019-05-12T14:05:00.532Z,0.60
2019-05-12T14:10:04.705Z,0.78
2019-05-12T14:15:20.578Z,0.95
2019-05-12T14:20:25.470Z,1.00
2019-05-12T14:25:33.007Z,0.80
2019-05-12T14:30:41.347Z,0.90
2019-05-12T14:35:46.010Z,0.70
2019-05-12T14:40:50.360Z,0.90
2019-05-12T14:46:06.145Z,1.00
2019-05-12T14:51:10.246Z,0.70
2019-05-12T14:56:15.061Z,0.80
2019-05-12T15:01:19.908Z,0.90
2019-05-12T15:06:29.441Z,0.70
2019-05-12T15:11:31.568Z,0.85
2019-05-12T15:16:40.289Z,0.80
2019-05-12T15:21:44.006Z,0.78
2019-05-12T15:26:50.439Z,0.70
2019-05-12T15:31:57.502Z,0.82
2019-05-12T15:37:04.206Z,0.75
2019-05-12T15:42:08.769Z,0.70
2019-05-12T15:47:13.476Z,0.72
2019-05-12T15:52:18.214Z,0.80
2019-05-12T15:57:24.497Z,0.70
2019-05-12T16:02:29.415Z,1.10
2019-05-12T16:07:37.904Z,0.90
2019-05-12T16:12:40.720Z,0.75
2019-05-12T16:17:45.613Z,0.60
2019-05-12T16:22:50.701Z,0.70
2019-05-12T16:27:55.544Z,0.70
2019-05-12T16:33:00.239Z,0.57
2019-05-12T16:38:17.179Z,0.70
2019-05-12T16:43:14.407Z,0.80
2019-05-12T16:48:30.374Z,0.60
2019-05-12T16:53:27.796Z,0.85
2019-05-12T16:58:35.359Z,0.75
2019-05-12T17:03:39.253Z,0.75
2019-05-12T17:08:44.150Z,0.62
2019-05-12T17:13:59.771Z,0.80
2019-05-12T17:19:00.102Z,0.80
2019-05-12T17:24:03.946Z,1.10
2019-05-12T17:29:09.300Z,0.85
2019-05-12T17:34:14.421Z,0.60
2019-05-12T17:39:19.378Z,0.90
2019-05-12T17:44:24.263Z,0.70
2019-05-12T17:49:30.803Z,0.80
2019-05-12T17:54:35.750Z,0.90
2019-05-12T17:59:42.560Z,0.90
2019-05-12T18:04:49.750Z,1.10
2019-05-12T18:10:05.054Z,1.55
2019-05-12T18:15:10.398Z,2.34
2019-05-12T18:20:15.601Z,1.37
2019-05-12T18:25:21.879Z,1.17
2019-05-12T18:30:27.057Z,0.80
2019-05-12T18:35:32.958Z,0.90
2019-05-12T18:40:38.295Z,0.70
2019-05-12T18:45:48.877Z,0.68
2019-05-12T18:50:55.368Z,0.70
2019-05-12T18:56:01.088Z,0.80
2019-05-12T19:01:06.964Z,0.70
2019-05-12T19:06:14.067Z,1.00
2019-05-12T19:11:23.041Z,0.70
2019-05-12T19:16:26.825Z,0.70
2019-05-12T19:21:31.776Z,0.80
2019-05-12T19:26:38.440Z,0.80
2019-05-12T19:31:51.896Z,0.72
2019-05-12T19:36:49.718Z,0.80
2019-05-12T19:41:54.635Z,0.90
2019-05-12T19:46:59.345Z,0.70
2019-05-12T19:52:04.682Z,0.70
2019-05-12T19:57:15.603Z,0.93
2019-05-12T20:02:16.167Z,0.80
2019-05-12T20:07:23.202Z,0.93
2019-05-12T20:12:28.858Z,1.05
2019-05-12T20:17:34.046Z,0.78
2019-05-12T20:22:38.861Z,0.62
2019-05-12T20:27:55.818Z,0.70
2019-05-12T20:32:57.216Z,0.80
2019-05-12T20:38:04.127Z,1.10
2019-05-12T20:43:08.747Z,1.65
2019-05-12T20:48:19.835Z,1.40
2019-05-12T20:53:24.854Z,1.00
2019-05-12T20:58:34.143Z,1.10
2019-05-12T21:03:34.740Z,1.10
2019-05-12T21:08:46.658Z,1.50
2019-05-12T21:13:46.324Z,0.93
2019-05-12T21:19:02.101Z,1.45
2019-05-12T21:23:59.490Z,1.00
2019-05-12T21:29:04.941Z,1.40
2019-05-12T21:34:21.183Z,0.82
2019-05-12T21:39:24.209Z,0.90
2019-05-12T21:44:29.252Z,1.10
2019-05-12T21:49:34.446Z,1.30
2019-05-12T21:54:39.877Z,0.93
2019-05-12T21:59:44.735Z,0.98
2019-05-12T22:04:49.573Z,1.05
2019-05-12T22:09:55.004Z,0.95
2019-05-12T22:15:00.257Z,1.12
2019-05-12T22:20:14.780Z,1.12
2019-05-12T22:25:15.781Z,1.03
2019-05-12T22:30:18.412Z,0.90
2019-05-12T22:35:26.838Z,0.78
2019-05-12T22:40:31.800Z,0.90
2019-05-12T22:45:44.201Z,1.20
2019-05-12T22:50:44.065Z,1.10
2019-05-12T22:55:50.685Z,1.07
2019-05-12T23:01:00.951Z,1.05
2019-05-12T23:06:12.992Z,1.13
2019-05-12T23:11:09.288Z,1.00
2019-05-12T23:16:14.275Z,1.12
2019-05-12T23:21:19.375Z,1.13
2019-05-12T23:26:24.621Z,1.30
2019-05-12T23:31:30.561Z,1.07
2019-05-12T23:36:38.989Z,1.20
2019-05-12T23:41:43.683Z,1.25
2019-05-12T23:46:48.618Z,1.15
2019-05-12T23:51:54.311Z,0.93
2019-05-12T23:56:59.183Z,0.90
